createdAt,value
2023-02-21T00:00:28.725Z,87.30
2023-02-21T00:05:44.370Z,87.13
2023-02-21T00:10:59.264Z,87.40
2023-02-21T00:16:14.730Z,87.26
2023-02-21T00:21:30.237Z,87.32
2023-02-21T00:26:45.123Z,87.37
2023-02-21T00:31:59.955Z,87.38
2023-02-21T00:37:14.865Z,87.48
2023-02-21T00:42:29.674Z,87.49
2023-02-21T00:47:44.681Z,87.37
2023-02-21T00:53:00.293Z,87.12
2023-02-21T00:58:15.223Z,87.28
2023-02-21T01:03:42.141Z,87.12
2023-02-21T01:09:01.943Z,87.06
2023-02-21T01:14:17.002Z,86.95
2023-02-21T01:19:32.229Z,87.21
2023-02-21T01:24:47.361Z,87.38
2023-02-21T01:30:02.467Z,87.15
2023-02-21T01:35:17.500Z,87.27
2023-02-21T01:40:34.285Z,87.33
2023-02-21T01:45:55.497Z,87.47
2023-02-21T01:51:11.195Z,87.15
2023-02-21T01:56:27.626Z,87.26
2023-02-21T02:01:52.695Z,87.54
2023-02-21T02:07:07.985Z,86.96
2023-02-21T02:12:23.349Z,87.18
2023-02-21T02:17:44.010Z,87.14
2023-02-21T02:22:52.039Z,87.02
2023-02-21T02:27:55.843Z,87.06
2023-02-21T02:33:17.096Z,87.18
2023-02-21T02:38:27.182Z,87.20
2023-02-21T02:43:50.181Z,87.06
2023-02-21T02:48:50.995Z,87.27
2023-02-21T02:53:47.497Z,87.19
2023-02-21T02:58:51.865Z,87.38
2023-02-21T03:04:17.418Z,86.97
2023-02-21T03:09:32.676Z,87.46
2023-02-21T03:15:09.074Z,86.98
2023-02-21T03:20:08.046Z,87.30
2023-02-21T03:25:05.135Z,87.22
2023-02-21T03:30:03.972Z,87.05
2023-02-21T03:35:00.498Z,87.05
2023-02-21T03:39:57.504Z,87.18
2023-02-21T03:44:54.056Z,87.05
2023-02-21T03:49:50.889Z,87.01
2023-02-21T03:54:47.282Z,87.04
2023-02-21T03:59:44.082Z,86.89
2023-02-21T04:04:40.456Z,87.26
2023-02-21T04:09:43.067Z,86.65
2023-02-21T04:14:44.356Z,86.99
2023-02-21T04:19:41.029Z,86.59
2023-02-21T04:24:37.551Z,86.86
2023-02-21T04:29:34.090Z,86.77
2023-02-21T04:34:31.657Z,86.62
2023-02-21T04:39:28.160Z,86.78
2023-02-21T04:44:33.050Z,86.34
2023-02-21T04:49:29.983Z,86.16
2023-02-21T04:54:29.826Z,85.92
2023-02-21T04:59:32.302Z,85.95
2023-02-21T05:10:45.470Z,85.60
2023-02-21T05:16:01.353Z,85.27
2023-02-21T05:21:20.919Z,85.08
2023-02-21T05:26:17.653Z,85.38
2023-02-21T05:31:17.200Z,85.41
2023-02-21T05:41:25.992Z,85.25
2023-02-21T05:58:58.635Z,84.64
2023-02-21T06:34:57.798Z,84.11
2023-02-21T07:56:21.485Z,82.86
2023-02-21T14:29:00.627Z,68.85
2023-02-21T14:34:04.798Z,68.72
2023-02-21T14:39:02.241Z,68.80
2023-02-21T14:44:45.049Z,68.88
2023-02-21T15:27:21.118Z,70.00
2023-02-21T15:32:21.066Z,69.78
2023-02-21T15:37:21.671Z,69.88
2023-02-21T15:48:39.545Z,70.26
2023-02-21T16:36:54.873Z,70.73
2023-02-21T17:01:04.907Z,70.96
2023-02-21T17:06:07.558Z,71.65
2023-02-21T17:11:41.710Z,71.82
2023-02-21T17:34:18.768Z,71.92
2023-02-21T17:45:14.035Z,72.33
2023-02-21T18:26:38.967Z,73.73
2023-02-21T18:38:06.411Z,73.58
2023-02-21T18:43:24.490Z,73.96
2023-02-21T18:54:31.550Z,73.89
2023-02-21T19:06:18.730Z,74.66
2023-02-21T19:23:26.189Z,74.53
2023-02-21T19:29:16.661Z,74.79
2023-02-21T19:35:22.313Z,74.71
2023-02-21T19:52:49.502Z,75.27
2023-02-21T19:58:56.646Z,75.30
2023-02-21T20:04:53.180Z,75.42
2023-02-21T20:28:09.844Z,75.31
2023-02-21T20:58:04.617Z,76.36
2023-02-21T21:09:43.804Z,75.99
2023-02-21T21:20:24.594Z,75.89
2023-02-21T21:25:22.621Z,76.01
2023-02-21T21:30:25.313Z,76.03
2023-02-21T21:35:39.646Z,76.38
2023-02-21T21:47:01.176Z,76.24
2023-02-21T21:51:58.758Z,76.24
2023-02-21T21:56:55.678Z,76.83
2023-02-21T22:02:00.785Z,76.64
2023-02-21T22:06:57.790Z,76.66
2023-02-21T22:12:06.148Z,76.66
2023-02-21T22:17:05.369Z,76.86
2023-02-21T22:22:08.035Z,76.94
2023-02-21T22:27:06.934Z,76.70
2023-02-21T22:32:03.635Z,77.01
2023-02-21T22:37:00.154Z,77.15
2023-02-21T22:42:08.745Z,77.07
2023-02-21T22:47:05.716Z,76.69
2023-02-21T22:52:04.095Z,77.04
2023-02-21T22:57:01.665Z,76.95
2023-02-21T23:02:01.407Z,76.90
2023-02-21T23:06:59.012Z,77.20
2023-02-21T23:11:58.911Z,76.98
2023-02-21T23:16:57.625Z,76.78
2023-02-21T23:21:57.703Z,76.98
2023-02-21T23:26:54.875Z,77.19
2023-02-21T23:31:54.302Z,76.97
2023-02-21T23:36:52.068Z,77.14
2023-02-21T23:41:49.429Z,77.25
2023-02-21T23:46:46.229Z,77.11
2023-02-21T23:51:45.420Z,77.23
2023-02-21T23:56:42.146Z,77.24
